sensor_id;sensor_type;location;lat;lon;timestamp;P1;durP1;ratioP1;P2;durP2;ratioP2
21860;SDS011;11095;48.066;8.540;2023-02-01T00:01:34;1.85;;;1.65;;
21860;SDS011;11095;48.066;8.540;2023-02-01T00:04:00;1.98;;;1.58;;
21860;SDS011;11095;48.066;8.540;2023-02-01T00:06:25;1.95;;;1.70;;
21860;SDS011;11095;48.066;8.540;2023-02-01T00:08:54;2.33;;;1.70;;
21860;SDS011;11095;48.066;8.540;2023-02-01T00:11:20;3.40;;;1.80;;
21860;SDS011;11095;48.066;8.540;2023-02-01T00:13:47;2.30;;;1.77;;
21860;SDS011;11095;48.066;8.540;2023-02-01T00:16:14;2.40;;;1.73;;
21860;SDS011;11095;48.066;8.540;2023-02-01T00:18:43;1.70;;;1.60;;
21860;SDS011;11095;48.066;8.540;2023-02-01T00:21:10;1.52;;;1.42;;
21860;SDS011;11095;48.066;8.540;2023-02-01T00:23:36;2.58;;;1.50;;
21860;SDS011;11095;48.066;8.540;2023-02-01T00:26:04;1.90;;;1.40;;
21860;SDS011;11095;48.066;8.540;2023-02-01T00:28:31;1.73;;;1.45;;
21860;SDS011;11095;48.066;8.540;2023-02-01T00:30:57;1.75;;;1.38;;
21860;SDS011;11095;48.066;8.540;2023-02-01T00:33:23;1.30;;;1.20;;
21860;SDS011;11095;48.066;8.540;2023-02-01T00:35:49;2.08;;;1.40;;
21860;SDS011;11095;48.066;8.540;2023-02-01T00:38:15;1.88;;;1.50;;
21860;SDS011;11095;48.066;8.540;2023-02-01T00:40:41;2.72;;;1.60;;
21860;SDS011;11095;48.066;8.540;2023-02-01T00:43:06;1.65;;;1.27;;
21860;SDS011;11095;48.066;8.540;2023-02-01T00:45:32;1.40;;;1.30;;
21860;SDS011;11095;48.066;8.540;2023-02-01T00:47:58;1.58;;;1.38;;
21860;SDS011;11095;48.066;8.540;2023-02-01T00:50:23;2.25;;;1.42;;
21860;SDS011;11095;48.066;8.540;2023-02-01T00:52:49;1.30;;;1.20;;
21860;SDS011;11095;48.066;8.540;2023-02-01T00:55:14;1.58;;;1.48;;
21860;SDS011;11095;48.066;8.540;2023-02-01T00:57:40;1.67;;;1.30;;
21860;SDS011;11095;48.066;8.540;2023-02-01T01:00:06;1.70;;;1.45;;
21860;SDS011;11095;48.066;8.540;2023-02-01T01:02:32;1.75;;;1.30;;
21860;SDS011;11095;48.066;8.540;2023-02-01T01:04:57;1.50;;;1.40;;
21860;SDS011;11095;48.066;8.540;2023-02-01T01:07:23;1.52;;;1.40;;
21860;SDS011;11095;48.066;8.540;2023-02-01T01:09:49;1.60;;;1.40;;
21860;SDS011;11095;48.066;8.540;2023-02-01T01:12:14;2.38;;;1.50;;
21860;SDS011;11095;48.066;8.540;2023-02-01T01:14:40;2.00;;;1.35;;
21860;SDS011;11095;48.066;8.540;2023-02-01T01:17:05;1.60;;;1.40;;
21860;SDS011;11095;48.066;8.540;2023-02-01T01:19:31;1.50;;;1.30;;
21860;SDS011;11095;48.066;8.540;2023-02-01T01:21:57;2.03;;;1.40;;
21860;SDS011;11095;48.066;8.540;2023-02-01T01:24:22;2.47;;;1.38;;
21860;SDS011;11095;48.066;8.540;2023-02-01T01:26:48;2.00;;;1.40;;
21860;SDS011;11095;48.066;8.540;2023-02-01T01:29:13;1.92;;;1.48;;
21860;SDS011;11095;48.066;8.540;2023-02-01T01:31:39;1.58;;;1.30;;
21860;SDS011;11095;48.066;8.540;2023-02-01T01:34:04;1.80;;;1.38;;
21860;SDS011;11095;48.066;8.540;2023-02-01T01:36:30;2.10;;;1.30;;
21860;SDS011;11095;48.066;8.540;2023-02-01T01:38:56;1.65;;;1.13;;
21860;SDS011;11095;48.066;8.540;2023-02-01T01:41:23;1.60;;;1.30;;
21860;SDS011;11095;48.066;8.540;2023-02-01T01:43:52;2.00;;;1.35;;
21860;SDS011;11095;48.066;8.540;2023-02-01T01:46:29;2.00;;;1.40;;
21860;SDS011;11095;48.066;8.540;2023-02-01T01:49:12;1.55;;;1.10;;
21860;SDS011;11095;48.066;8.540;2023-02-01T01:51:40;1.15;;;1.05;;
21860;SDS011;11095;48.066;8.540;2023-02-01T01:54:11;1.35;;;1.20;;
21860;SDS011;11095;48.066;8.540;2023-02-01T01:56:47;1.40;;;1.20;;
21860;SDS011;11095;48.066;8.540;2023-02-01T01:59:16;2.05;;;1.17;;
21860;SDS011;11095;48.066;8.540;2023-02-01T02:01:42;1.30;;;1.20;;
21860;SDS011;11095;48.066;8.540;2023-02-01T02:04:08;1.30;;;1.10;;
21860;SDS011;11095;48.066;8.540;2023-02-01T02:06:37;1.30;;;1.20;;
21860;SDS011;11095;48.066;8.540;2023-02-01T02:09:22;1.50;;;1.17;;
21860;SDS011;11095;48.066;8.540;2023-02-01T02:11:48;2.25;;;1.30;;
21860;SDS011;11095;48.066;8.540;2023-02-01T02:14:14;1.23;;;1.13;;
21860;SDS011;11095;48.066;8.540;2023-02-01T02:20:33;0.93;;;0.90;;
21860;SDS011;11095;48.066;8.540;2023-02-01T02:22:53;1.60;;;1.00;;
21860;SDS011;11095;48.066;8.540;2023-02-01T02:37:11;2.90;;;1.20;;
21860;SDS011;11095;48.066;8.540;2023-02-01T02:39:50;1.30;;;1.00;;
21860;SDS011;11095;48.066;8.540;2023-02-01T02:42:29;0.95;;;0.90;;
21860;SDS011;11095;48.066;8.540;2023-02-01T02:45:27;1.55;;;1.05;;
21860;SDS011;11095;48.066;8.540;2023-02-01T02:48:25;1.00;;;0.90;;
21860;SDS011;11095;48.066;8.540;2023-02-01T02:50:58;1.20;;;1.10;;
21860;SDS011;11095;48.066;8.540;2023-02-01T02:53:55;1.58;;;1.20;;
21860;SDS011;11095;48.066;8.540;2023-02-01T02:56:55;1.20;;;1.02;;
21860;SDS011;11095;48.066;8.540;2023-02-01T02:59:41;1.55;;;1.05;;
21860;SDS011;11095;48.066;8.540;2023-02-01T03:02:29;1.85;;;1.30;;
21860;SDS011;11095;48.066;8.540;2023-02-01T03:05:14;1.98;;;1.30;;
21860;SDS011;11095;48.066;8.540;2023-02-01T03:10:32;1.40;;;1.17;;
21860;SDS011;11095;48.066;8.540;2023-02-01T03:13:04;2.22;;;1.10;;
21860;SDS011;11095;48.066;8.540;2023-02-01T03:15:42;1.95;;;1.42;;
21860;SDS011;11095;48.066;8.540;2023-02-01T03:21:24;3.15;;;1.60;;
21860;SDS011;11095;48.066;8.540;2023-02-01T03:23:57;1.80;;;1.60;;
21860;SDS011;11095;48.066;8.540;2023-02-01T03:26:27;2.17;;;1.70;;
21860;SDS011;11095;48.066;8.540;2023-02-01T03:28:57;2.17;;;1.90;;
21860;SDS011;11095;48.066;8.540;2023-02-01T03:31:30;2.58;;;1.90;;
21860;SDS011;11095;48.066;8.540;2023-02-01T03:33:56;3.03;;;2.10;;
21860;SDS011;11095;48.066;8.540;2023-02-01T03:39:21;3.20;;;2.00;;
21860;SDS011;11095;48.066;8.540;2023-02-01T03:41:56;2.60;;;2.20;;
21860;SDS011;11095;48.066;8.540;2023-02-01T03:44:31;2.97;;;2.47;;
21860;SDS011;11095;48.066;8.540;2023-02-01T03:47:02;2.85;;;2.20;;
21860;SDS011;11095;48.066;8.540;2023-02-01T03:49:30;2.95;;;1.95;;
21860;SDS011;11095;48.066;8.540;2023-02-01T03:52:05;3.80;;;2.50;;
21860;SDS011;11095;48.066;8.540;2023-02-01T03:54:35;3.35;;;2.40;;
21860;SDS011;11095;48.066;8.540;2023-02-01T03:57:05;3.75;;;2.55;;
21860;SDS011;11095;48.066;8.540;2023-02-01T03:59:38;2.20;;;2.00;;
21860;SDS011;11095;48.066;8.540;2023-02-01T04:02:07;3.30;;;2.20;;
21860;SDS011;11095;48.066;8.540;2023-02-01T04:04:33;2.83;;;2.30;;
21860;SDS011;11095;48.066;8.540;2023-02-01T04:06:59;3.45;;;2.20;;
21860;SDS011;11095;48.066;8.540;2023-02-01T04:09:25;3.85;;;2.38;;
21860;SDS011;11095;48.066;8.540;2023-02-01T04:11:50;2.88;;;2.17;;
21860;SDS011;11095;48.066;8.540;2023-02-01T04:14:16;3.00;;;2.20;;
21860;SDS011;11095;48.066;8.540;2023-02-01T04:16:42;3.17;;;2.10;;
21860;SDS011;11095;48.066;8.540;2023-02-01T04:19:07;2.95;;;2.30;;
21860;SDS011;11095;48.066;8.540;2023-02-01T04:21:33;3.13;;;2.30;;
21860;SDS011;11095;48.066;8.540;2023-02-01T04:23:59;2.90;;;2.05;;
21860;SDS011;11095;48.066;8.540;2023-02-01T04:26:25;2.20;;;1.80;;
21860;SDS011;11095;48.066;8.540;2023-02-01T04:28:50;3.95;;;1.70;;
21860;SDS011;11095;48.066;8.540;2023-02-01T04:31:17;2.92;;;1.85;;
21860;SDS011;11095;48.066;8.540;2023-02-01T04:33:50;2.70;;;1.90;;
21860;SDS011;11095;48.066;8.540;2023-02-01T04:36:17;3.35;;;1.70;;
21860;SDS011;11095;48.066;8.540;2023-02-01T04:38:45;2.60;;;1.80;;
21860;SDS011;11095;48.066;8.540;2023-02-01T04:41:12;2.80;;;1.90;;
21860;SDS011;11095;48.066;8.540;2023-02-01T04:43:37;2.38;;;1.80;;
21860;SDS011;11095;48.066;8.540;2023-02-01T04:46:03;2.67;;;1.73;;
21860;SDS011;11095;48.066;8.540;2023-02-01T04:48:29;2.80;;;1.90;;
21860;SDS011;11095;48.066;8.540;2023-02-01T04:50:55;2.80;;;1.90;;
21860;SDS011;11095;48.066;8.540;2023-02-01T04:53:21;2.08;;;1.60;;
21860;SDS011;11095;48.066;8.540;2023-02-01T04:55:47;2.50;;;1.90;;
21860;SDS011;11095;48.066;8.540;2023-02-01T04:58:13;2.28;;;1.80;;
21860;SDS011;11095;48.066;8.540;2023-02-01T05:00:39;2.88;;;2.08;;
21860;SDS011;11095;48.066;8.540;2023-02-01T05:03:04;2.42;;;2.00;;
21860;SDS011;11095;48.066;8.540;2023-02-01T05:05:30;3.20;;;2.10;;
21860;SDS011;11095;48.066;8.540;2023-02-01T05:07:56;2.50;;;1.77;;
21860;SDS011;11095;48.066;8.540;2023-02-01T05:10:21;2.67;;;1.85;;
21860;SDS011;11095;48.066;8.540;2023-02-01T05:12:47;5.03;;;1.80;;
21860;SDS011;11095;48.066;8.540;2023-02-01T05:15:31;2.30;;;1.70;;
21860;SDS011;11095;48.066;8.540;2023-02-01T05:17:57;3.45;;;1.95;;
21860;SDS011;11095;48.066;8.540;2023-02-01T05:20:23;3.08;;;1.92;;
21860;SDS011;11095;48.066;8.540;2023-02-01T05:22:49;2.45;;;1.80;;
21860;SDS011;11095;48.066;8.540;2023-02-01T05:25:15;3.50;;;2.38;;
21860;SDS011;11095;48.066;8.540;2023-02-01T05:27:41;4.25;;;2.15;;
21860;SDS011;11095;48.066;8.540;2023-02-01T05:30:08;2.75;;;2.00;;
21860;SDS011;11095;48.066;8.540;2023-02-01T05:32:34;2.65;;;2.03;;
21860;SDS011;11095;48.066;8.540;2023-02-01T05:34:59;2.50;;;1.80;;
21860;SDS011;11095;48.066;8.540;2023-02-01T05:37:25;2.63;;;1.90;;
21860;SDS011;11095;48.066;8.540;2023-02-01T05:39:51;2.67;;;1.83;;
21860;SDS011;11095;48.066;8.540;2023-02-01T05:42:17;2.53;;;1.83;;
21860;SDS011;11095;48.066;8.540;2023-02-01T05:44:42;1.48;;;1.38;;
21860;SDS011;11095;48.066;8.540;2023-02-01T05:47:08;2.85;;;1.70;;
21860;SDS011;11095;48.066;8.540;2023-02-01T05:49:33;2.45;;;1.80;;
21860;SDS011;11095;48.066;8.540;2023-02-01T05:51:59;1.85;;;1.63;;
21860;SDS011;11095;48.066;8.540;2023-02-01T05:54:25;3.38;;;1.90;;
21860;SDS011;11095;48.066;8.540;2023-02-01T05:56:50;2.38;;;1.88;;
21860;SDS011;11095;48.066;8.540;2023-02-01T05:59:16;3.08;;;1.95;;
21860;SDS011;11095;48.066;8.540;2023-02-01T06:01:42;3.45;;;2.03;;
21860;SDS011;11095;48.066;8.540;2023-02-01T06:04:08;2.35;;;1.80;;
21860;SDS011;11095;48.066;8.540;2023-02-01T06:06:34;3.90;;;1.83;;
21860;SDS011;11095;48.066;8.540;2023-02-01T06:09:00;2.67;;;1.90;;
21860;SDS011;11095;48.066;8.540;2023-02-01T06:11:26;2.22;;;1.77;;
21860;SDS011;11095;48.066;8.540;2023-02-01T06:13:52;3.65;;;1.90;;
21860;SDS011;11095;48.066;8.540;2023-02-01T06:16:18;2.25;;;1.70;;
21860;SDS011;11095;48.066;8.540;2023-02-01T06:18:44;2.47;;;1.60;;
21860;SDS011;11095;48.066;8.540;2023-02-01T06:21:10;3.25;;;1.90;;
21860;SDS011;11095;48.066;8.540;2023-02-01T06:23:35;2.42;;;1.90;;
21860;SDS011;11095;48.066;8.540;2023-02-01T06:26:02;2.42;;;1.80;;
21860;SDS011;11095;48.066;8.540;2023-02-01T06:28:30;2.63;;;1.67;;
21860;SDS011;11095;48.066;8.540;2023-02-01T06:30:56;2.70;;;1.88;;
21860;SDS011;11095;48.066;8.540;2023-02-01T06:33:23;2.20;;;1.63;;
21860;SDS011;11095;48.066;8.540;2023-02-01T06:36:00;1.92;;;1.60;;
21860;SDS011;11095;48.066;8.540;2023-02-01T06:38:29;1.88;;;1.50;;
21860;SDS011;11095;48.066;8.540;2023-02-01T06:40:55;1.75;;;1.50;;
21860;SDS011;11095;48.066;8.540;2023-02-01T06:43:23;2.30;;;1.27;;
21860;SDS011;11095;48.066;8.540;2023-02-01T06:45:49;1.50;;;1.23;;
21860;SDS011;11095;48.066;8.540;2023-02-01T06:48:16;1.55;;;1.40;;
21860;SDS011;11095;48.066;8.540;2023-02-01T06:50:41;2.63;;;1.85;;
21860;SDS011;11095;48.066;8.540;2023-02-01T06:53:07;2.28;;;1.60;;
21860;SDS011;11095;48.066;8.540;2023-02-01T06:55:32;2.63;;;1.50;;
21860;SDS011;11095;48.066;8.540;2023-02-01T06:57:58;1.90;;;1.40;;
21860;SDS011;11095;48.066;8.540;2023-02-01T07:00:24;2.25;;;1.60;;
21860;SDS011;11095;48.066;8.540;2023-02-01T07:02:50;1.60;;;1.35;;
21860;SDS011;11095;48.066;8.540;2023-02-01T07:05:16;2.10;;;1.70;;
21860;SDS011;11095;48.066;8.540;2023-02-01T07:07:42;3.03;;;1.60;;
21860;SDS011;11095;48.066;8.540;2023-02-01T07:10:08;2.67;;;1.50;;
21860;SDS011;11095;48.066;8.540;2023-02-01T07:12:35;2.08;;;1.40;;
21860;SDS011;11095;48.066;8.540;2023-02-01T07:15:01;2.22;;;1.70;;
21860;SDS011;11095;48.066;8.540;2023-02-01T07:17:27;2.58;;;1.50;;
21860;SDS011;11095;48.066;8.540;2023-02-01T07:19:54;1.98;;;1.50;;
21860;SDS011;11095;48.066;8.540;2023-02-01T07:22:20;1.60;;;1.50;;
21860;SDS011;11095;48.066;8.540;2023-02-01T07:24:46;3.28;;;1.65;;
21860;SDS011;11095;48.066;8.540;2023-02-01T07:27:11;2.72;;;1.60;;
21860;SDS011;11095;48.066;8.540;2023-02-01T07:29:37;2.35;;;1.90;;
21860;SDS011;11095;48.066;8.540;2023-02-01T07:32:03;2.60;;;1.67;;
21860;SDS011;11095;48.066;8.540;2023-02-01T07:34:29;2.58;;;2.00;;
21860;SDS011;11095;48.066;8.540;2023-02-01T07:36:55;2.92;;;2.40;;
21860;SDS011;11095;48.066;8.540;2023-02-01T07:39:21;3.42;;;2.40;;
21860;SDS011;11095;48.066;8.540;2023-02-01T07:41:47;3.25;;;2.30;;
21860;SDS011;11095;48.066;8.540;2023-02-01T07:44:13;2.65;;;1.95;;
21860;SDS011;11095;48.066;8.540;2023-02-01T07:46:38;2.65;;;1.77;;
21860;SDS011;11095;48.066;8.540;2023-02-01T07:49:08;3.80;;;2.10;;
21860;SDS011;11095;48.066;8.540;2023-02-01T07:51:33;4.32;;;2.30;;
21860;SDS011;11095;48.066;8.540;2023-02-01T07:53:59;2.35;;;1.85;;
21860;SDS011;11095;48.066;8.540;2023-02-01T07:56:25;4.35;;;2.80;;
21860;SDS011;11095;48.066;8.540;2023-02-01T07:58:51;5.15;;;3.47;;
21860;SDS011;11095;48.066;8.540;2023-02-01T08:01:20;4.80;;;3.37;;
21860;SDS011;11095;48.066;8.540;2023-02-01T08:03:55;4.68;;;2.95;;
21860;SDS011;11095;48.066;8.540;2023-02-01T08:06:28;3.85;;;2.70;;
21860;SDS011;11095;48.066;8.540;2023-02-01T08:08:56;3.78;;;2.83;;
21860;SDS011;11095;48.066;8.540;2023-02-01T08:11:22;5.20;;;3.15;;
21860;SDS011;11095;48.066;8.540;2023-02-01T08:13:49;4.95;;;2.90;;
21860;SDS011;11095;48.066;8.540;2023-02-01T08:16:16;6.15;;;3.70;;
21860;SDS011;11095;48.066;8.540;2023-02-01T08:18:42;8.82;;;4.22;;
21860;SDS011;11095;48.066;8.540;2023-02-01T08:21:16;5.75;;;3.10;;
21860;SDS011;11095;48.066;8.540;2023-02-01T08:23:45;3.03;;;2.10;;
21860;SDS011;11095;48.066;8.540;2023-02-01T08:26:12;2.90;;;1.60;;
21860;SDS011;11095;48.066;8.540;2023-02-01T08:28:39;2.90;;;1.60;;
21860;SDS011;11095;48.066;8.540;2023-02-01T08:31:08;2.42;;;1.70;;
21860;SDS011;11095;48.066;8.540;2023-02-01T08:33:35;3.03;;;1.75;;
21860;SDS011;11095;48.066;8.540;2023-02-01T08:36:03;2.55;;;1.73;;
21860;SDS011;11095;48.066;8.540;2023-02-01T08:38:29;3.55;;;1.80;;
21860;SDS011;11095;48.066;8.540;2023-02-01T08:40:55;2.75;;;1.60;;
21860;SDS011;11095;48.066;8.540;2023-02-01T08:43:21;2.40;;;1.60;;
21860;SDS011;11095;48.066;8.540;2023-02-01T08:45:47;1.60;;;1.40;;
21860;SDS011;11095;48.066;8.540;2023-02-01T08:48:13;1.95;;;1.50;;
21860;SDS011;11095;48.066;8.540;2023-02-01T08:50:38;3.60;;;2.00;;
21860;SDS011;11095;48.066;8.540;2023-02-01T08:53:04;3.08;;;1.58;;
21860;SDS011;11095;48.066;8.540;2023-02-01T08:55:29;3.22;;;1.40;;
21860;SDS011;11095;48.066;8.540;2023-02-01T08:57:55;3.70;;;1.90;;
21860;SDS011;11095;48.066;8.540;2023-02-01T09:00:21;4.10;;;2.10;;
21860;SDS011;11095;48.066;8.540;2023-02-01T09:02:47;3.10;;;2.20;;
21860;SDS011;11095;48.066;8.540;2023-02-01T09:05:12;3.67;;;2.00;;
21860;SDS011;11095;48.066;8.540;2023-02-01T09:07:41;3.47;;;2.10;;
21860;SDS011;11095;48.066;8.540;2023-02-01T09:10:07;3.88;;;2.17;;
21860;SDS011;11095;48.066;8.540;2023-02-01T09:12:33;3.63;;;2.10;;
21860;SDS011;11095;48.066;8.540;2023-02-01T09:15:00;2.15;;;1.52;;
21860;SDS011;11095;48.066;8.540;2023-02-01T09:17:26;3.15;;;2.05;;
21860;SDS011;11095;48.066;8.540;2023-02-01T09:19:52;4.65;;;1.90;;
21860;SDS011;11095;48.066;8.540;2023-02-01T09:22:18;4.03;;;1.73;;
21860;SDS011;11095;48.066;8.540;2023-02-01T09:24:44;3.83;;;1.58;;
21860;SDS011;11095;48.066;8.540;2023-02-01T09:27:10;3.45;;;1.67;;
21860;SDS011;11095;48.066;8.540;2023-02-01T09:29:35;3.30;;;1.90;;
21860;SDS011;11095;48.066;8.540;2023-02-01T09:32:01;3.30;;;1.80;;
21860;SDS011;11095;48.066;8.540;2023-02-01T09:34:27;2.58;;;1.60;;
21860;SDS011;11095;48.066;8.540;2023-02-01T09:36:53;4.35;;;2.30;;
21860;SDS011;11095;48.066;8.540;2023-02-01T09:39:19;3.97;;;2.30;;
21860;SDS011;11095;48.066;8.540;2023-02-01T09:47:18;3.67;;;2.13;;
21860;SDS011;11095;48.066;8.540;2023-02-01T09:52:32;3.30;;;1.90;;
21860;SDS011;11095;48.066;8.540;2023-02-01T09:55:07;3.45;;;2.10;;
21860;SDS011;11095;48.066;8.540;2023-02-01T09:58:04;3.35;;;2.22;;
21860;SDS011;11095;48.066;8.540;2023-02-01T10:00:34;5.95;;;2.55;;
21860;SDS011;11095;48.066;8.540;2023-02-01T10:03:02;4.20;;;2.23;;
21860;SDS011;11095;48.066;8.540;2023-02-01T10:10:45;3.90;;;2.20;;
21860;SDS011;11095;48.066;8.540;2023-02-01T10:15:50;3.03;;;2.05;;
21860;SDS011;11095;48.066;8.540;2023-02-01T10:21:31;4.80;;;2.20;;
21860;SDS011;11095;48.066;8.540;2023-02-01T10:27:12;4.60;;;2.15;;
21860;SDS011;11095;48.066;8.540;2023-02-01T10:29:57;4.35;;;2.00;;
21860;SDS011;11095;48.066;8.540;2023-02-01T10:32:29;3.78;;;1.75;;
21860;SDS011;11095;48.066;8.540;2023-02-01T10:35:08;4.00;;;2.42;;
21860;SDS011;11095;48.066;8.540;2023-02-01T10:37:40;3.63;;;1.60;;
21860;SDS011;11095;48.066;8.540;2023-02-01T10:40:13;2.72;;;1.77;;
21860;SDS011;11095;48.066;8.540;2023-02-01T10:42:40;2.10;;;1.70;;
21860;SDS011;11095;48.066;8.540;2023-02-01T10:45:06;3.75;;;1.75;;
21860;SDS011;11095;48.066;8.540;2023-02-01T10:47:38;2.40;;;1.75;;
21860;SDS011;11095;48.066;8.540;2023-02-01T10:55:33;3.28;;;1.95;;
21860;SDS011;11095;48.066;8.540;2023-02-01T10:58:02;3.75;;;2.00;;
21860;SDS011;11095;48.066;8.540;2023-02-01T11:00:43;3.33;;;1.83;;
21860;SDS011;11095;48.066;8.540;2023-02-01T11:03:31;3.17;;;2.08;;
21860;SDS011;11095;48.066;8.540;2023-02-01T11:06:30;3.75;;;2.13;;
21860;SDS011;11095;48.066;8.540;2023-02-01T11:11:33;3.53;;;2.10;;
21860;SDS011;11095;48.066;8.540;2023-02-01T11:16:52;5.32;;;2.28;;
21860;SDS011;11095;48.066;8.540;2023-02-01T11:19:22;3.22;;;2.08;;
21860;SDS011;11095;48.066;8.540;2023-02-01T11:21:49;6.88;;;2.45;;
21860;SDS011;11095;48.066;8.540;2023-02-01T11:24:23;2.67;;;1.80;;
21860;SDS011;11095;48.066;8.540;2023-02-01T11:26:59;2.72;;;1.95;;
21860;SDS011;11095;48.066;8.540;2023-02-01T11:29:35;4.40;;;2.42;;
21860;SDS011;11095;48.066;8.540;2023-02-01T11:32:08;4.72;;;2.40;;
21860;SDS011;11095;48.066;8.540;2023-02-01T11:34:38;4.20;;;2.50;;
21860;SDS011;11095;48.066;8.540;2023-02-01T11:37:13;4.45;;;2.60;;
21860;SDS011;11095;48.066;8.540;2023-02-01T11:39:55;3.53;;;2.20;;
21860;SDS011;11095;48.066;8.540;2023-02-01T11:42:23;3.35;;;2.10;;
21860;SDS011;11095;48.066;8.540;2023-02-01T11:44:49;3.05;;;2.22;;
21860;SDS011;11095;48.066;8.540;2023-02-01T11:49:49;3.95;;;2.22;;
21860;SDS011;11095;48.066;8.540;2023-02-01T12:00:45;3.10;;;2.10;;
21860;SDS011;11095;48.066;8.540;2023-02-01T12:03:46;2.80;;;1.73;;
21860;SDS011;11095;48.066;8.540;2023-02-01T12:11:41;7.38;;;2.47;;
21860;SDS011;11095;48.066;8.540;2023-02-01T12:17:41;4.82;;;2.00;;
21860;SDS011;11095;48.066;8.540;2023-02-01T12:20:30;3.90;;;2.40;;
21860;SDS011;11095;48.066;8.540;2023-02-01T12:23:06;4.65;;;2.47;;
21860;SDS011;11095;48.066;8.540;2023-02-01T12:25:57;3.95;;;2.15;;
21860;SDS011;11095;48.066;8.540;2023-02-01T12:28:38;6.25;;;2.42;;
21860;SDS011;11095;48.066;8.540;2023-02-01T12:39:24;5.57;;;2.80;;
21860;SDS011;11095;48.066;8.540;2023-02-01T12:41:58;5.38;;;2.67;;
21860;SDS011;11095;48.066;8.540;2023-02-01T12:45:02;6.97;;;2.85;;
21860;SDS011;11095;48.066;8.540;2023-02-01T12:50:58;7.32;;;2.90;;
21860;SDS011;11095;48.066;8.540;2023-02-01T12:56:02;7.35;;;3.00;;
21860;SDS011;11095;48.066;8.540;2023-02-01T12:58:35;5.22;;;2.60;;
21860;SDS011;11095;48.066;8.540;2023-02-01T13:01:05;5.43;;;2.70;;
21860;SDS011;11095;48.066;8.540;2023-02-01T13:11:50;7.05;;;2.83;;
21860;SDS011;11095;48.066;8.540;2023-02-01T13:14:42;4.47;;;2.70;;
21860;SDS011;11095;48.066;8.540;2023-02-01T13:17:19;6.30;;;2.45;;
21860;SDS011;11095;48.066;8.540;2023-02-01T13:19:54;10.65;;;3.30;;
21860;SDS011;11095;48.066;8.540;2023-02-01T13:25:13;7.53;;;2.58;;
21860;SDS011;11095;48.066;8.540;2023-02-01T13:27:56;7.18;;;2.53;;
21860;SDS011;11095;48.066;8.540;2023-02-01T13:30:30;5.72;;;2.30;;
21860;SDS011;11095;48.066;8.540;2023-02-01T13:36:54;6.95;;;2.38;;
21860;SDS011;11095;48.066;8.540;2023-02-01T13:42:17;4.70;;;2.28;;
21860;SDS011;11095;48.066;8.540;2023-02-01T13:45:03;9.02;;;2.70;;
21860;SDS011;11095;48.066;8.540;2023-02-01T13:47:41;5.90;;;2.80;;
21860;SDS011;11095;48.066;8.540;2023-02-01T13:55:25;8.23;;;2.90;;
21860;SDS011;11095;48.066;8.540;2023-02-01T13:58:11;7.72;;;3.20;;
21860;SDS011;11095;48.066;8.540;2023-02-01T14:00:39;8.02;;;3.00;;
21860;SDS011;11095;48.066;8.540;2023-02-01T14:03:09;7.07;;;3.10;;
21860;SDS011;11095;48.066;8.540;2023-02-01T14:21:15;8.70;;;2.58;;
21860;SDS011;11095;48.066;8.540;2023-02-01T14:24:17;5.47;;;2.22;;
21860;SDS011;11095;48.066;8.540;2023-02-01T14:26:43;9.35;;;2.58;;
21860;SDS011;11095;48.066;8.540;2023-02-01T14:31:43;6.70;;;2.40;;
21860;SDS011;11095;48.066;8.540;2023-02-01T14:44:50;10.00;;;2.70;;
21860;SDS011;11095;48.066;8.540;2023-02-01T14:52:40;8.40;;;2.40;;
21860;SDS011;11095;48.066;8.540;2023-02-01T14:55:15;8.82;;;2.80;;
21860;SDS011;11095;48.066;8.540;2023-02-01T14:57:46;8.57;;;2.95;;
21860;SDS011;11095;48.066;8.540;2023-02-01T15:00:25;7.57;;;2.90;;
21860;SDS011;11095;48.066;8.540;2023-02-01T15:02:56;8.43;;;2.50;;
21860;SDS011;11095;48.066;8.540;2023-02-01T15:05:42;7.25;;;2.28;;
21860;SDS011;11095;48.066;8.540;2023-02-01T15:08:16;7.28;;;2.50;;
21860;SDS011;11095;48.066;8.540;2023-02-01T15:10:45;5.57;;;2.15;;
21860;SDS011;11095;48.066;8.540;2023-02-01T15:13:21;8.75;;;2.40;;
21860;SDS011;11095;48.066;8.540;2023-02-01T15:18:37;7.35;;;2.28;;
21860;SDS011;11095;48.066;8.540;2023-02-01T15:21:03;7.05;;;2.55;;
21860;SDS011;11095;48.066;8.540;2023-02-01T15:23:30;9.00;;;2.70;;
21860;SDS011;11095;48.066;8.540;2023-02-01T15:25:56;8.93;;;2.88;;
21860;SDS011;11095;48.066;8.540;2023-02-01T15:28:24;8.63;;;2.63;;
21860;SDS011;11095;48.066;8.540;2023-02-01T15:30:54;8.98;;;2.60;;
21860;SDS011;11095;48.066;8.540;2023-02-01T15:33:20;6.63;;;2.45;;
21860;SDS011;11095;48.066;8.540;2023-02-01T15:35:47;8.05;;;2.75;;
21860;SDS011;11095;48.066;8.540;2023-02-01T15:40:56;6.57;;;2.90;;
21860;SDS011;11095;48.066;8.540;2023-02-01T15:43:35;9.55;;;3.13;;
21860;SDS011;11095;48.066;8.540;2023-02-01T15:46:02;7.53;;;3.22;;
21860;SDS011;11095;48.066;8.540;2023-02-01T15:48:41;7.97;;;3.00;;
21860;SDS011;11095;48.066;8.540;2023-02-01T15:51:19;9.75;;;3.30;;
21860;SDS011;11095;48.066;8.540;2023-02-01T15:53:48;9.38;;;3.17;;
21860;SDS011;11095;48.066;8.540;2023-02-01T15:56:21;7.60;;;3.10;;
21860;SDS011;11095;48.066;8.540;2023-02-01T15:58:50;13.40;;;3.22;;
21860;SDS011;11095;48.066;8.540;2023-02-01T16:01:19;11.50;;;3.47;;
21860;SDS011;11095;48.066;8.540;2023-02-01T16:03:45;8.98;;;3.28;;
21860;SDS011;11095;48.066;8.540;2023-02-01T16:08:52;9.02;;;3.70;;
21860;SDS011;11095;48.066;8.540;2023-02-01T16:11:40;7.72;;;3.13;;
21860;SDS011;11095;48.066;8.540;2023-02-01T16:14:25;8.52;;;3.08;;
21860;SDS011;11095;48.066;8.540;2023-02-01T16:16:52;11.30;;;3.20;;
21860;SDS011;11095;48.066;8.540;2023-02-01T16:19:19;7.63;;;3.00;;
21860;SDS011;11095;48.066;8.540;2023-02-01T16:21:44;6.20;;;2.85;;
21860;SDS011;11095;48.066;8.540;2023-02-01T16:24:11;8.85;;;2.97;;
21860;SDS011;11095;48.066;8.540;2023-02-01T16:26:37;9.52;;;2.80;;
21860;SDS011;11095;48.066;8.540;2023-02-01T16:29:03;8.68;;;2.92;;
21860;SDS011;11095;48.066;8.540;2023-02-01T16:31:32;8.23;;;3.20;;
21860;SDS011;11095;48.066;8.540;2023-02-01T16:34:03;9.40;;;2.95;;
21860;SDS011;11095;48.066;8.540;2023-02-01T16:36:30;10.93;;;3.20;;
21860;SDS011;11095;48.066;8.540;2023-02-01T16:38:56;6.70;;;2.47;;
21860;SDS011;11095;48.066;8.540;2023-02-01T16:41:23;9.73;;;3.08;;
21860;SDS011;11095;48.066;8.540;2023-02-01T16:43:51;8.32;;;2.70;;
21860;SDS011;11095;48.066;8.540;2023-02-01T16:46:19;7.07;;;2.55;;
21860;SDS011;11095;48.066;8.540;2023-02-01T16:48:56;10.52;;;3.00;;
21860;SDS011;11095;48.066;8.540;2023-02-01T16:51:23;8.10;;;2.90;;
21860;SDS011;11095;48.066;8.540;2023-02-01T16:53:52;9.10;;;2.70;;
21860;SDS011;11095;48.066;8.540;2023-02-01T16:56:19;10.63;;;3.20;;
21860;SDS011;11095;48.066;8.540;2023-02-01T16:58:45;7.82;;;3.00;;
21860;SDS011;11095;48.066;8.540;2023-02-01T17:01:12;6.65;;;2.75;;
21860;SDS011;11095;48.066;8.540;2023-02-01T17:03:39;8.88;;;3.30;;
21860;SDS011;11095;48.066;8.540;2023-02-01T17:06:05;8.52;;;2.88;;
21860;SDS011;11095;48.066;8.540;2023-02-01T17:08:42;9.07;;;3.15;;
21860;SDS011;11095;48.066;8.540;2023-02-01T17:11:11;9.25;;;2.90;;
21860;SDS011;11095;48.066;8.540;2023-02-01T17:13:40;9.98;;;3.25;;
21860;SDS011;11095;48.066;8.540;2023-02-01T17:21:29;9.95;;;3.60;;
21860;SDS011;11095;48.066;8.540;2023-02-01T17:23:59;9.35;;;3.45;;
21860;SDS011;11095;48.066;8.540;2023-02-01T17:26:25;9.23;;;3.13;;
21860;SDS011;11095;48.066;8.540;2023-02-01T17:28:51;9.20;;;3.30;;
21860;SDS011;11095;48.066;8.540;2023-02-01T17:31:17;11.10;;;3.10;;
21860;SDS011;11095;48.066;8.540;2023-02-01T17:33:43;9.98;;;3.30;;
21860;SDS011;11095;48.066;8.540;2023-02-01T17:36:13;8.63;;;3.38;;
21860;SDS011;11095;48.066;8.540;2023-02-01T17:38:41;9.02;;;2.90;;
21860;SDS011;11095;48.066;8.540;2023-02-01T17:41:10;7.25;;;2.85;;
21860;SDS011;11095;48.066;8.540;2023-02-01T17:43:37;10.05;;;3.17;;
21860;SDS011;11095;48.066;8.540;2023-02-01T17:46:10;10.38;;;3.40;;